createdAt,value
2023-07-20T00:03:26.415Z,22.45
2023-07-20T00:08:28.449Z,22.44
2023-07-20T00:13:30.188Z,22.36
2023-07-20T00:18:31.857Z,22.42
2023-07-20T00:23:36.076Z,22.44
2023-07-20T00:28:38.238Z,22.38
2023-07-20T00:33:39.672Z,22.32
2023-07-20T00:38:42.043Z,22.30
2023-07-20T00:43:43.700Z,22.32
2023-07-20T00:48:45.854Z,22.34
2023-07-20T00:53:47.588Z,22.34
2023-07-20T00:58:50.061Z,22.24
2023-07-20T01:03:51.576Z,22.17
2023-07-20T01:09:10.634Z,22.04
2023-07-20T01:14:13.064Z,22.00
2023-07-20T01:19:15.914Z,22.00
2023-07-20T01:24:39.196Z,21.98
2023-07-20T01:29:53.152Z,21.91
2023-07-20T01:34:56.660Z,21.86
2023-07-20T01:39:59.368Z,21.84
2023-07-20T01:45:00.887Z,21.71
2023-07-20T01:50:02.366Z,21.56
2023-07-20T01:55:05.735Z,21.69
2023-07-20T02:00:08.275Z,21.65
2023-07-20T02:05:12.271Z,21.62
2023-07-20T02:10:13.704Z,21.55
2023-07-20T02:15:17.505Z,21.56
2023-07-20T02:20:20.350Z,21.42
2023-07-20T02:25:22.122Z,21.33
2023-07-20T02:30:24.030Z,21.27
2023-07-20T02:35:25.560Z,21.14
2023-07-20T02:40:27.317Z,21.21
2023-07-20T02:45:28.946Z,21.10
2023-07-20T02:50:30.358Z,21.16
2023-07-20T02:55:31.767Z,21.21
2023-07-20T03:00:34.038Z,21.24
2023-07-20T03:05:35.477Z,21.25
2023-07-20T03:10:42.315Z,21.16
2023-07-20T03:15:44.113Z,21.01
2023-07-20T03:20:46.127Z,20.99
2023-07-20T03:25:47.540Z,20.92
2023-07-20T03:30:57.003Z,20.98
2023-07-20T03:35:59.194Z,20.94
2023-07-20T03:41:01.794Z,21.03
2023-07-20T03:46:08.644Z,21.02
2023-07-20T03:51:10.106Z,21.03
2023-07-20T03:56:13.487Z,21.04
2023-07-20T04:01:14.981Z,20.99
2023-07-20T04:06:17.867Z,21.01
2023-07-20T04:11:19.530Z,20.98
2023-07-20T04:16:21.910Z,20.95
2023-07-20T04:21:25.160Z,20.95
2023-07-20T04:26:26.579Z,20.97
2023-07-20T04:31:28.198Z,20.86
2023-07-20T04:36:29.695Z,20.76
2023-07-20T04:41:33.654Z,20.72
2023-07-20T04:46:36.165Z,20.60
2023-07-20T04:51:37.629Z,20.55
2023-07-20T04:56:39.848Z,20.51
2023-07-20T05:01:43.114Z,20.44
2023-07-20T05:06:44.858Z,20.40
2023-07-20T05:11:49.219Z,20.41
2023-07-20T05:16:51.099Z,20.44
2023-07-20T05:21:52.946Z,20.43
2023-07-20T05:26:55.675Z,20.45
2023-07-20T05:31:57.843Z,20.51
2023-07-20T05:36:59.566Z,20.56
2023-07-20T05:42:01.293Z,20.61
2023-07-20T05:47:03.760Z,20.65
2023-07-20T05:52:06.268Z,20.61
2023-07-20T05:57:08.299Z,20.69
2023-07-20T06:02:10.267Z,20.71
2023-07-20T06:07:11.947Z,20.77
2023-07-20T06:12:13.719Z,20.91
2023-07-20T06:17:15.735Z,20.89
2023-07-20T06:22:17.501Z,20.89
2023-07-20T06:27:19.022Z,20.87
2023-07-20T06:32:20.552Z,20.88
2023-07-20T06:37:22.257Z,20.76
2023-07-20T06:43:48.613Z,20.71
2023-07-20T06:47:48.610Z,20.89
2023-07-20T06:52:50.178Z,20.87
2023-07-20T06:57:52.870Z,20.91
2023-07-20T07:02:54.602Z,20.88
2023-07-20T07:07:56.057Z,20.88
2023-07-20T07:12:57.740Z,20.95
2023-07-20T07:18:00.770Z,21.00
2023-07-20T07:23:02.301Z,21.08
2023-07-20T07:28:05.340Z,21.18
2023-07-20T07:33:06.908Z,21.39
2023-07-20T07:38:19.360Z,21.56
2023-07-20T07:43:30.226Z,21.49
2023-07-20T07:48:31.800Z,21.68
2023-07-20T07:53:33.898Z,21.77
2023-07-20T07:58:35.669Z,21.68
2023-07-20T08:03:38.648Z,21.47
2023-07-20T08:08:40.406Z,21.65
2023-07-20T08:13:43.582Z,21.89
2023-07-20T08:18:45.698Z,21.95
2023-07-20T08:23:47.363Z,21.78
2023-07-20T08:28:49.300Z,21.89
2023-07-20T08:33:51.672Z,21.93
2023-07-20T08:38:53.506Z,22.21
2023-07-20T08:43:56.455Z,22.52
2023-07-20T08:48:58.861Z,22.63
2023-07-20T08:54:01.924Z,22.97
2023-07-20T08:59:03.990Z,23.20
2023-07-20T09:04:05.935Z,23.27
2023-07-20T09:09:07.425Z,23.11
2023-07-20T09:14:10.698Z,23.06
2023-07-20T09:19:12.073Z,23.10
2023-07-20T09:24:14.101Z,23.24
2023-07-20T09:29:19.477Z,23.12
2023-07-20T09:54:39.798Z,22.59
2023-07-20T09:59:42.161Z,22.78
2023-07-20T10:04:44.871Z,22.98
2023-07-20T10:09:47.037Z,23.50
2023-07-20T10:15:02.015Z,24.12
2023-07-20T10:20:06.435Z,24.25
2023-07-20T10:25:08.492Z,24.15
2023-07-20T10:30:10.678Z,23.99
2023-07-20T10:35:17.234Z,23.76
2023-07-20T10:40:35.316Z,23.86
2023-07-20T10:45:39.762Z,23.87
2023-07-20T10:50:41.680Z,24.36
2023-07-20T10:55:45.030Z,24.21
2023-07-20T11:01:04.778Z,24.17
2023-07-20T11:06:24.969Z,24.31
2023-07-20T11:11:28.955Z,24.66
2023-07-20T11:16:39.147Z,25.25
2023-07-20T11:21:59.704Z,25.35
2023-07-20T11:27:03.866Z,25.21
2023-07-20T11:32:06.477Z,25.18
2023-07-20T11:42:14.019Z,25.79
2023-07-20T11:47:15.685Z,25.77
2023-07-20T11:52:18.695Z,25.66
2023-07-20T11:57:21.915Z,25.48
2023-07-20T12:02:27.406Z,25.14
2023-07-20T12:07:30.107Z,24.94
2023-07-20T12:12:45.381Z,24.83
2023-07-20T12:17:51.534Z,24.96
2023-07-20T12:22:54.346Z,25.45
2023-07-20T12:27:56.309Z,25.59
2023-07-20T12:32:58.410Z,25.65
2023-07-20T12:38:00.980Z,25.45
2023-07-20T12:43:03.086Z,25.49
2023-07-20T12:48:04.830Z,25.33
2023-07-20T12:53:06.357Z,25.59
2023-07-20T12:58:09.180Z,25.96
2023-07-20T13:03:10.766Z,25.77
2023-07-20T13:08:31.352Z,25.60
2023-07-20T13:13:34.903Z,25.83
2023-07-20T13:18:37.939Z,25.76
2023-07-20T13:23:39.707Z,25.76
2023-07-20T13:28:41.741Z,26.02
2023-07-20T13:33:43.311Z,26.26
2023-07-20T13:38:44.761Z,26.41
2023-07-20T13:43:46.659Z,26.44
2023-07-20T13:53:56.819Z,26.23
2023-07-20T13:58:59.281Z,26.04
2023-07-20T14:04:05.102Z,25.71
2023-07-20T14:09:07.564Z,25.65
2023-07-20T14:14:09.115Z,25.63
2023-07-20T14:24:12.992Z,25.52
2023-07-20T14:29:14.518Z,25.58
2023-07-20T14:34:16.506Z,25.62
2023-07-20T14:39:18.792Z,25.53
2023-07-20T14:44:21.826Z,25.37
2023-07-20T14:49:23.400Z,25.29
2023-07-20T14:54:25.119Z,25.32
2023-07-20T14:59:26.822Z,25.40
2023-07-20T15:04:29.194Z,25.28
2023-07-20T15:09:30.706Z,25.24
2023-07-20T15:14:32.236Z,25.33
2023-07-20T15:19:35.471Z,25.26
2023-07-20T15:24:37.500Z,25.19
2023-07-20T15:29:38.992Z,25.11
2023-07-20T15:34:40.380Z,25.20
2023-07-20T15:39:42.834Z,25.13
2023-07-20T15:44:44.303Z,25.05
2023-07-20T15:49:46.839Z,25.02
2023-07-20T15:54:49.000Z,25.11
2023-07-20T15:59:50.554Z,25.15
2023-07-20T16:04:54.084Z,25.00
2023-07-20T16:09:59.343Z,25.06
2023-07-20T16:20:05.991Z,25.21
2023-07-20T16:25:08.040Z,25.24
2023-07-20T16:30:09.644Z,25.01
2023-07-20T16:35:12.077Z,25.02
2023-07-20T16:45:20.709Z,25.08
2023-07-20T16:50:22.952Z,25.09
2023-07-20T16:55:24.917Z,25.06
2023-07-20T17:00:26.753Z,25.02
2023-07-20T17:05:28.362Z,24.95
2023-07-20T17:10:29.819Z,24.92
2023-07-20T17:15:34.857Z,24.80
2023-07-20T17:31:02.265Z,24.45
2023-07-20T17:41:08.940Z,24.46
2023-07-20T17:51:15.302Z,24.46
2023-07-20T17:56:16.921Z,24.44
2023-07-20T18:01:18.302Z,24.48
2023-07-20T18:06:19.988Z,24.43
2023-07-20T18:11:21.574Z,24.37
2023-07-20T18:16:23.033Z,24.35
2023-07-20T18:21:24.811Z,24.22
2023-07-20T18:26:26.525Z,24.23
2023-07-20T18:31:28.204Z,24.20
2023-07-20T18:36:29.883Z,24.18
2023-07-20T18:41:31.228Z,24.11
2023-07-20T18:46:32.610Z,24.07
2023-07-20T18:51:34.355Z,23.97
2023-07-20T18:56:35.754Z,23.92
2023-07-20T19:01:37.236Z,23.83
2023-07-20T19:06:38.661Z,23.78
2023-07-20T19:16:44.772Z,23.69
2023-07-20T19:21:46.112Z,23.67
2023-07-20T19:26:47.560Z,23.59
2023-07-20T19:31:48.960Z,23.57
2023-07-20T19:36:50.364Z,23.51
2023-07-20T19:41:51.714Z,23.46
2023-07-20T19:46:53.260Z,23.43
2023-07-20T19:51:54.748Z,23.39
2023-07-20T19:56:56.538Z,23.33
2023-07-20T20:01:57.987Z,23.33
2023-07-20T20:07:00.889Z,23.27
2023-07-20T20:12:02.242Z,23.25
2023-07-20T20:17:04.706Z,23.20
2023-07-20T20:22:07.359Z,23.14
2023-07-20T20:27:08.701Z,23.10
2023-07-20T20:32:11.906Z,23.07
2023-07-20T20:37:13.235Z,23.05
2023-07-20T20:42:15.327Z,23.01
2023-07-20T20:47:16.672Z,22.97
2023-07-20T20:52:18.336Z,22.95
2023-07-20T20:57:19.853Z,22.92
2023-07-20T21:02:21.594Z,22.86
2023-07-20T21:07:23.154Z,22.84
2023-07-20T21:12:24.530Z,22.82
2023-07-20T21:17:27.521Z,22.80
2023-07-20T21:22:29.068Z,22.81
2023-07-20T21:27:30.406Z,22.72
2023-07-20T21:32:31.844Z,22.68
2023-07-20T21:37:33.318Z,22.66
2023-07-20T21:42:34.774Z,22.67
2023-07-20T21:47:36.259Z,22.65
2023-07-20T21:52:37.692Z,22.64
2023-07-20T21:57:39.041Z,22.60
2023-07-20T22:02:40.730Z,22.56
2023-07-20T22:07:42.447Z,22.53
2023-07-20T22:12:43.841Z,22.50
2023-07-20T22:17:45.256Z,22.46
2023-07-20T22:22:46.671Z,22.44
2023-07-20T22:27:48.352Z,22.44
2023-07-20T22:32:49.727Z,22.41
2023-07-20T22:37:51.562Z,22.40
2023-07-20T22:42:53.028Z,22.34
2023-07-20T22:47:54.767Z,22.36
2023-07-20T22:52:56.265Z,22.34
2023-07-20T22:57:59.358Z,22.29
2023-07-20T23:03:00.856Z,22.25
2023-07-20T23:08:02.345Z,22.27
2023-07-20T23:13:03.650Z,22.22
2023-07-20T23:18:05.059Z,22.18
2023-07-20T23:23:06.608Z,22.07
2023-07-20T23:28:08.075Z,22.02
2023-07-20T23:33:10.251Z,22.03
2023-07-20T23:38:12.225Z,22.01
2023-07-20T23:43:13.710Z,21.99
2023-07-20T23:48:15.110Z,21.99
2023-07-20T23:53:16.433Z,21.94
2023-07-20T23:58:17.747Z,21.97
